CYPG

Portage La Prairie Airport

Portage, , Canada
METAR CYPG 151200Z 15004KT 15SM SKC 10/08 A2992 RMK FU ALF SLP137
Observed Flight Rules
Aug-15 @ 12:00 UTC (41 minutes ago) Visual Flight Rules
Wind Visibility Clouds
150° at 4 knots 15 miles
  • Clear skies
Temperatures Readings
Current 10°C / 50°F
Dewpoint 8°C / 46°F
Humidity 88%
Altimeter 29.92" Hg
Pressure 1013.7 hPa
Elevation 269
METAR CYPG 151200Z 15004KT 15SM SKC 10/08 A2992 RMK FU ALF SLP137
Observed Flight Rules
Aug-15 @ 12:00 UTC
(41 minutes ago)
VFR
Wind Visibility
150° at 4 knots 15 miles
Clouds
  • Clear skies
Temperature Dewpoint
10°C / 50°F 8°C / 46°F
Humidity Altimeter Pressure
88% 29.92" Hg 1013.7 hPa